createdAt,value
2018-12-25T00:01:47.709Z,11.65
2018-12-25T00:04:17.931Z,10.05
2018-12-25T00:06:47.889Z,10.53
2018-12-25T00:09:18.261Z,11.65
2018-12-25T00:11:48.435Z,10.82
2018-12-25T00:14:18.955Z,12.00
2018-12-25T00:16:49.363Z,9.90
2018-12-25T00:19:19.337Z,10.03
2018-12-25T00:21:52.468Z,8.85
2018-12-25T00:24:22.600Z,7.42
2018-12-25T00:26:53.134Z,7.35
2018-12-25T00:29:23.109Z,8.35
2018-12-25T00:31:52.982Z,8.30
2018-12-25T00:34:23.113Z,8.35
2018-12-25T00:36:54.013Z,7.53
2018-12-25T00:39:23.888Z,7.83
2018-12-25T00:41:54.093Z,7.35
2018-12-25T00:44:24.259Z,7.95
2018-12-25T00:46:54.549Z,7.15
2018-12-25T00:49:24.666Z,8.43
2018-12-25T00:51:54.803Z,8.30
2018-12-25T00:54:24.679Z,7.08
2018-12-25T00:56:54.578Z,8.70
2018-12-25T00:59:24.473Z,8.75
2018-12-25T01:01:54.671Z,8.00
2018-12-25T01:04:25.280Z,7.85
2018-12-25T01:06:55.199Z,8.15
2018-12-25T01:09:25.589Z,8.55
2018-12-25T01:15:46.374Z,6.87
2018-12-25T01:25:35.729Z,7.92
2018-12-25T01:28:06.296Z,6.92
2018-12-25T01:36:58.389Z,8.15
2018-12-25T01:39:28.991Z,6.95
2018-12-25T01:41:59.241Z,8.20
2018-12-25T01:48:20.941Z,10.60
2018-12-25T01:58:10.833Z,7.83
2018-12-25T02:00:40.731Z,8.78
2018-12-25T02:03:10.848Z,10.18
2018-12-25T02:05:40.894Z,9.30
2018-12-25T02:11:37.042Z,9.50
2018-12-25T02:14:06.988Z,10.82
2018-12-25T02:16:36.944Z,13.60
2018-12-25T02:19:07.043Z,14.10
2018-12-25T02:21:37.198Z,11.33
2018-12-25T02:24:07.349Z,11.40
2018-12-25T02:26:37.759Z,10.95
2018-12-25T02:29:08.152Z,10.08
2018-12-25T02:31:38.519Z,10.80
2018-12-25T02:34:08.773Z,10.08
2018-12-25T02:36:39.641Z,10.90
2018-12-25T02:39:10.610Z,10.78
2018-12-25T02:41:40.535Z,11.20
2018-12-25T02:44:10.498Z,9.80
2018-12-25T02:46:41.121Z,13.78
2018-12-25T02:49:11.071Z,12.37
2018-12-25T02:51:41.203Z,11.93
2018-12-25T02:54:11.393Z,12.07
2018-12-25T02:56:41.330Z,13.68
2018-12-25T02:59:11.250Z,13.68
2018-12-25T03:01:41.621Z,13.70
2018-12-25T03:04:11.550Z,11.57
2018-12-25T03:06:41.763Z,12.88
2018-12-25T03:09:11.984Z,17.12
2018-12-25T03:11:42.043Z,47.33
2018-12-25T03:14:12.416Z,35.95
2018-12-25T03:16:42.444Z,38.35
2018-12-25T03:19:12.601Z,35.35
2018-12-25T03:21:42.506Z,29.60
2018-12-25T03:24:12.646Z,31.65
2018-12-25T03:26:42.760Z,27.40
2018-12-25T03:29:13.002Z,30.43
2018-12-25T03:31:42.955Z,24.60
2018-12-25T03:34:12.845Z,19.10
2018-12-25T03:36:43.816Z,17.12
2018-12-25T03:39:13.721Z,14.45
2018-12-25T03:41:43.615Z,17.30
2018-12-25T03:44:13.804Z,15.60
2018-12-25T03:46:44.000Z,15.80
2018-12-25T03:49:14.217Z,14.60
2018-12-25T03:51:44.795Z,13.93
2018-12-25T03:54:14.747Z,15.05
2018-12-25T03:56:44.709Z,13.90
2018-12-25T03:59:14.623Z,17.02
2018-12-25T04:05:12.384Z,15.03
2018-12-25T04:07:42.626Z,15.70
2018-12-25T04:10:12.761Z,15.28
2018-12-25T04:12:42.912Z,17.45
2018-12-25T04:15:13.091Z,16.52
2018-12-25T04:17:43.310Z,18.73
2018-12-25T04:20:19.683Z,22.45
2018-12-25T04:26:17.573Z,17.20
2018-12-25T04:36:05.019Z,17.15
2018-12-25T04:38:35.172Z,18.00
2018-12-25T04:41:05.315Z,17.20
2018-12-25T04:43:35.477Z,16.10
2018-12-25T04:46:05.466Z,19.87
2018-12-25T04:48:35.885Z,19.27
2018-12-25T04:51:06.722Z,17.55
2018-12-25T04:53:36.639Z,19.23
2018-12-25T04:56:07.199Z,18.48
2018-12-25T04:58:37.447Z,17.17
2018-12-25T05:01:07.567Z,16.35
2018-12-25T05:03:37.555Z,16.77
2018-12-25T05:06:07.535Z,16.93
2018-12-25T05:08:37.459Z,17.57
2018-12-25T05:11:07.850Z,18.25
2018-12-25T05:13:37.788Z,18.00
2018-12-25T05:16:08.345Z,19.90
2018-12-25T05:18:38.845Z,18.40
2018-12-25T05:21:09.009Z,20.15
2018-12-25T05:23:39.232Z,18.52
2018-12-25T05:26:09.460Z,19.80
2018-12-25T05:28:39.365Z,19.48
2018-12-25T05:31:09.379Z,20.30
2018-12-25T05:33:39.554Z,20.50
2018-12-25T05:36:09.513Z,23.05
2018-12-25T05:38:39.731Z,22.00
2018-12-25T05:41:10.327Z,21.35
2018-12-25T05:43:40.235Z,22.30
2018-12-25T05:46:10.363Z,21.20
2018-12-25T05:48:40.526Z,22.75
2018-12-25T05:51:10.487Z,25.00
2018-12-25T05:53:40.479Z,24.63
2018-12-25T05:56:10.422Z,26.95
2018-12-25T05:58:41.291Z,26.37
2018-12-25T06:01:11.464Z,26.80
2018-12-25T06:03:41.739Z,23.40
2018-12-25T06:06:11.902Z,23.60
2018-12-25T06:08:42.775Z,25.55
2018-12-25T06:11:12.726Z,26.20
2018-12-25T06:13:42.903Z,21.62
2018-12-25T06:35:18.383Z,24.70
2018-12-25T06:45:08.918Z,23.50
2018-12-25T06:47:38.833Z,24.92
2018-12-25T06:50:08.766Z,22.58
2018-12-25T06:52:38.919Z,22.37
2018-12-25T06:55:09.101Z,23.92
2018-12-25T06:57:39.324Z,23.10
2018-12-25T07:00:09.487Z,24.63
2018-12-25T07:02:39.789Z,26.75
2018-12-25T07:05:09.693Z,27.82
2018-12-25T07:07:39.896Z,28.98
2018-12-25T07:10:10.079Z,31.82
2018-12-25T07:12:40.163Z,32.55
2018-12-25T07:15:10.159Z,29.95
2018-12-25T07:17:40.319Z,26.02
2018-12-25T07:23:55.421Z,29.27
2018-12-25T07:26:25.559Z,28.87
2018-12-25T07:28:55.824Z,27.45
2018-12-25T07:31:25.758Z,26.55
2018-12-25T07:37:47.140Z,26.25
2018-12-25T07:40:17.073Z,25.92
2018-12-25T07:42:49.420Z,25.12
2018-12-25T07:45:19.593Z,24.55
2018-12-25T07:47:49.478Z,22.98
2018-12-25T07:50:19.811Z,23.07
2018-12-25T07:56:22.727Z,22.82
2018-12-25T07:58:52.639Z,23.92
2018-12-25T08:01:25.422Z,22.87
2018-12-25T08:03:55.338Z,26.37
2018-12-25T08:06:25.494Z,25.23
2018-12-25T08:08:55.562Z,29.48
2018-12-25T08:11:26.293Z,28.55
2018-12-25T08:28:52.279Z,24.60
2018-12-25T08:31:22.239Z,24.67
2018-12-25T08:48:28.855Z,27.73
2018-12-25T08:50:58.757Z,22.70
2018-12-25T08:53:28.818Z,24.12
2018-12-25T08:55:58.707Z,24.43
2018-12-25T08:58:28.618Z,22.07
2018-12-25T09:00:58.520Z,20.90
2018-12-25T09:03:28.483Z,22.60
2018-12-25T09:05:58.392Z,23.22
2018-12-25T09:08:34.788Z,22.65
2018-12-25T09:11:00.404Z,18.80
2018-12-25T09:13:30.518Z,18.55
2018-12-25T09:16:00.409Z,19.60
2018-12-25T09:18:30.551Z,17.37
2018-12-25T09:21:00.453Z,16.93
2018-12-25T09:23:30.358Z,19.25
2018-12-25T09:26:01.010Z,17.45
2018-12-25T09:28:31.145Z,17.80
2018-12-25T09:31:01.128Z,19.25
2018-12-25T09:33:31.189Z,16.35
2018-12-25T09:36:01.581Z,16.37
2018-12-25T09:38:31.761Z,16.17
2018-12-25T09:44:52.565Z,13.30
2018-12-25T09:47:22.486Z,16.73
2018-12-25T09:49:52.726Z,14.38
2018-12-25T09:52:22.704Z,12.78
2018-12-25T09:54:52.612Z,16.35
2018-12-25T09:57:22.540Z,16.25
2018-12-25T09:59:52.695Z,17.57
2018-12-25T10:03:35.543Z,18.32
2018-12-25T10:15:55.363Z,14.75
2018-12-25T10:18:25.251Z,15.78
2018-12-25T10:34:55.566Z,14.75
2018-12-25T10:37:25.479Z,15.93
2018-12-25T10:39:55.536Z,14.10
2018-12-25T10:42:25.907Z,14.23
2018-12-25T10:44:55.823Z,12.98
2018-12-25T10:47:26.181Z,14.77
2018-12-25T11:08:54.589Z,11.80
2018-12-25T11:18:31.302Z,13.93
2018-12-25T11:30:32.861Z,14.50
2018-12-25T11:48:13.497Z,12.90
2018-12-25T11:50:43.913Z,12.82
2018-12-25T11:53:14.165Z,14.40
2018-12-25T11:55:44.574Z,13.75
2018-12-25T11:58:14.518Z,13.53
2018-12-25T12:00:44.471Z,11.43
2018-12-25T12:03:14.423Z,13.37
2018-12-25T12:05:44.364Z,11.63
2018-12-25T12:08:14.285Z,10.53
2018-12-25T12:10:44.390Z,10.70
2018-12-25T12:13:14.620Z,11.68
2018-12-25T12:15:45.299Z,13.65
2018-12-25T12:18:15.640Z,12.68
2018-12-25T12:20:45.886Z,13.03
2018-12-25T12:23:15.781Z,10.93
2018-12-25T12:25:45.666Z,11.50
2018-12-25T12:28:15.650Z,9.08
2018-12-25T12:30:46.272Z,9.60
2018-12-25T12:33:16.157Z,10.90
2018-12-25T12:35:46.318Z,10.32
2018-12-25T12:38:16.289Z,10.70
2018-12-25T12:40:46.320Z,9.20
2018-12-25T12:43:16.781Z,9.65
2018-12-25T12:45:47.161Z,10.23
2018-12-25T12:48:17.090Z,10.10
2018-12-25T12:54:38.295Z,11.37
2018-12-25T12:57:08.715Z,11.77
2018-12-25T12:59:38.658Z,10.80
2018-12-25T13:05:59.717Z,11.73
2018-12-25T13:08:29.869Z,9.73
2018-12-25T13:15:03.287Z,11.90
2018-12-25T13:17:33.249Z,11.50
2018-12-25T13:20:04.117Z,12.57
2018-12-25T13:22:33.989Z,13.17
2018-12-25T13:28:36.179Z,11.33
2018-12-25T13:31:06.547Z,11.43
2018-12-25T14:07:57.695Z,12.70
2018-12-25T14:10:27.618Z,12.88
2018-12-25T14:12:57.777Z,12.00
2018-12-25T14:15:28.057Z,11.40
2018-12-25T14:17:58.037Z,11.73
2018-12-25T14:24:12.801Z,10.90
2018-12-25T14:26:42.957Z,11.57
2018-12-25T14:29:12.859Z,12.63
2018-12-25T14:31:42.799Z,11.60
2018-12-25T14:38:04.115Z,11.20
2018-12-25T14:40:34.030Z,12.70
2018-12-25T14:43:03.922Z,12.15
2018-12-25T15:00:15.208Z,11.60
2018-12-25T15:02:45.131Z,12.80
2018-12-25T15:21:28.250Z,12.15
2018-12-25T15:23:58.418Z,14.85
2018-12-25T15:26:28.316Z,12.50
2018-12-25T15:32:31.291Z,12.43
2018-12-25T15:35:01.534Z,16.27
2018-12-25T15:44:06.222Z,15.90
2018-12-25T15:46:36.429Z,15.70
2018-12-25T15:49:06.324Z,16.82
2018-12-25T15:51:36.987Z,18.35
2018-12-25T15:57:51.781Z,14.75
2018-12-25T16:00:21.723Z,17.65
2018-12-25T16:02:51.715Z,17.32
2018-12-25T16:05:22.263Z,15.53
2018-12-25T16:24:50.302Z,17.07
2018-12-25T16:45:47.442Z,16.10
2018-12-25T16:48:17.734Z,19.07
2018-12-25T16:57:11.117Z,16.42
2018-12-25T16:59:41.039Z,17.10
2018-12-25T17:02:10.936Z,18.57
2018-12-25T17:04:41.078Z,16.27
2018-12-25T17:10:55.858Z,15.58
2018-12-25T17:13:26.037Z,15.50
2018-12-25T17:15:55.967Z,17.52
2018-12-25T17:18:26.117Z,15.98
2018-12-25T17:20:56.070Z,14.87
2018-12-25T17:23:26.287Z,15.72
2018-12-25T17:25:56.449Z,16.05
2018-12-25T17:32:11.556Z,18.50
2018-12-25T17:41:59.412Z,17.95
2018-12-25T17:44:29.389Z,19.40
2018-12-25T17:46:59.340Z,17.62
2018-12-25T17:49:29.263Z,18.17
2018-12-25T17:51:59.185Z,16.12
2018-12-25T17:54:29.087Z,19.95
2018-12-25T18:10:53.141Z,16.00
2018-12-25T18:20:44.486Z,17.92
2018-12-25T18:23:14.379Z,18.55
2018-12-25T18:25:44.531Z,18.25
2018-12-25T18:28:14.435Z,19.95
2018-12-25T18:30:44.574Z,16.37
2018-12-25T18:33:14.484Z,19.52
2018-12-25T18:35:44.421Z,17.87
2018-12-25T18:38:14.365Z,19.48
2018-12-25T18:40:44.339Z,17.32
2018-12-25T18:43:14.243Z,19.87
2018-12-25T18:45:44.168Z,18.70
2018-12-25T18:48:14.092Z,18.70
2018-12-25T18:50:44.060Z,17.52
2018-12-25T18:53:14.247Z,21.05
2018-12-25T18:55:44.146Z,17.80
2018-12-25T18:58:14.041Z,18.05
2018-12-25T19:00:43.953Z,20.10
2018-12-25T19:03:14.109Z,18.02
2018-12-25T19:05:44.406Z,18.32
2018-12-25T19:08:14.389Z,19.10
2018-12-25T19:10:44.388Z,19.23
2018-12-25T19:13:14.345Z,18.57
2018-12-25T19:15:46.572Z,17.92
2018-12-25T19:22:07.827Z,18.55
2018-12-25T19:24:37.731Z,20.35
2018-12-25T19:27:08.245Z,19.48
2018-12-25T19:29:38.190Z,17.10
2018-12-25T19:35:53.188Z,18.23
2018-12-25T19:38:23.105Z,18.10
2018-12-25T19:47:15.319Z,18.87
2018-12-25T19:49:45.405Z,17.25
2018-12-25T20:13:46.061Z,18.30
2018-12-25T20:17:09.754Z,17.85
2018-12-25T20:27:15.023Z,15.83
2018-12-25T20:30:36.025Z,16.02
2018-12-25T20:34:18.307Z,14.95
2018-12-25T20:37:40.965Z,17.48
2018-12-25T20:41:15.139Z,19.85
2018-12-25T20:45:09.441Z,19.50
2018-12-25T20:48:44.097Z,16.47
2018-12-25T20:52:09.865Z,19.07
2018-12-25T20:55:18.722Z,19.17
2018-12-25T20:59:01.356Z,20.77
2018-12-25T21:02:34.744Z,19.42
2018-12-25T21:06:11.628Z,16.82
2018-12-25T21:09:39.344Z,20.23
2018-12-25T21:12:57.082Z,18.80
2018-12-25T21:16:15.297Z,20.35
2018-12-25T21:19:43.801Z,20.95
2018-12-25T21:23:29.195Z,21.07
2018-12-25T21:26:52.993Z,17.02
2018-12-25T21:29:23.473Z,18.45
2018-12-25T21:31:53.517Z,17.85
2018-12-25T21:34:23.425Z,17.90
2018-12-25T21:36:54.207Z,17.50
2018-12-25T21:39:24.500Z,17.57
2018-12-25T21:41:54.960Z,17.25
2018-12-25T21:44:26.295Z,15.60
2018-12-25T21:46:56.512Z,17.77
2018-12-25T21:49:26.973Z,17.52
2018-12-25T21:51:56.967Z,17.37
2018-12-25T21:54:27.211Z,15.95
2018-12-25T21:56:58.049Z,15.88
2018-12-25T21:59:28.216Z,16.45
2018-12-25T22:01:58.135Z,15.95
2018-12-25T22:04:28.081Z,18.70
2018-12-25T22:10:43.308Z,16.87
2018-12-25T22:13:13.715Z,14.93
2018-12-25T22:15:44.253Z,16.05
2018-12-25T22:18:14.145Z,18.05
2018-12-25T22:20:44.060Z,20.23
2018-12-25T22:23:13.969Z,19.65
2018-12-25T22:25:44.087Z,17.82
2018-12-25T22:28:14.231Z,17.95
2018-12-25T22:30:44.218Z,16.10
2018-12-25T22:33:14.183Z,16.93
2018-12-25T22:35:44.344Z,16.57
2018-12-25T22:38:14.236Z,19.98
2018-12-25T22:40:44.145Z,17.67
2018-12-25T22:43:14.057Z,18.80
2018-12-25T22:45:44.198Z,15.78
2018-12-25T22:48:14.488Z,18.45
2018-12-25T22:50:44.665Z,16.60
2018-12-25T22:53:14.791Z,17.77
2018-12-25T22:55:44.770Z,17.15
2018-12-25T22:58:14.801Z,18.07
2018-12-25T23:00:45.177Z,15.50
2018-12-25T23:03:17.343Z,17.32
2018-12-25T23:05:47.255Z,17.82
2018-12-25T23:08:17.163Z,16.30
2018-12-25T23:10:47.314Z,17.60
2018-12-25T23:13:17.212Z,18.27
2018-12-25T23:15:47.124Z,15.88
2018-12-25T23:18:17.026Z,15.08
2018-12-25T23:20:47.043Z,19.20
2018-12-25T23:23:16.952Z,19.90
2018-12-25T23:25:46.858Z,17.87
2018-12-25T23:28:17.209Z,17.82
2018-12-25T23:30:47.186Z,15.88
2018-12-25T23:33:17.374Z,17.77
2018-12-25T23:35:47.440Z,17.15
2018-12-25T23:38:17.360Z,17.42
2018-12-25T23:40:47.533Z,15.88
2018-12-25T23:43:18.004Z,16.65
2018-12-25T23:45:48.363Z,15.55
2018-12-25T23:48:18.288Z,14.70
2018-12-25T23:50:48.444Z,14.78
2018-12-25T23:53:18.330Z,19.00
2018-12-25T23:55:52.960Z,18.52
2018-12-25T23:58:20.108Z,17.80
